sensor_id;sensor_type;location;lat;lon;timestamp;P1;durP1;ratioP1;P2;durP2;ratioP2
31126;SDS011;17775;57.948;12.514;2022-10-16T00:01:34;14.88;;;6.30;;
31126;SDS011;17775;57.948;12.514;2022-10-16T00:04:00;19.02;;;7.00;;
31126;SDS011;17775;57.948;12.514;2022-10-16T00:06:30;19.50;;;6.75;;
31126;SDS011;17775;57.948;12.514;2022-10-16T00:08:57;16.40;;;7.07;;
31126;SDS011;17775;57.948;12.514;2022-10-16T00:11:28;17.00;;;6.38;;
31126;SDS011;17775;57.948;12.514;2022-10-16T00:13:56;18.85;;;5.60;;
31126;SDS011;17775;57.948;12.514;2022-10-16T00:16:23;15.80;;;6.65;;
31126;SDS011;17775;57.948;12.514;2022-10-16T00:18:49;14.32;;;6.55;;
31126;SDS011;17775;57.948;12.514;2022-10-16T00:21:17;17.98;;;7.28;;
31126;SDS011;17775;57.948;12.514;2022-10-16T00:23:44;20.40;;;6.80;;
31126;SDS011;17775;57.948;12.514;2022-10-16T00:26:12;20.15;;;6.85;;
31126;SDS011;17775;57.948;12.514;2022-10-16T00:28:38;15.88;;;6.47;;
31126;SDS011;17775;57.948;12.514;2022-10-16T00:31:06;16.52;;;7.10;;
31126;SDS011;17775;57.948;12.514;2022-10-16T00:33:33;16.15;;;6.90;;
31126;SDS011;17775;57.948;12.514;2022-10-16T00:36:01;26.25;;;7.85;;
31126;SDS011;17775;57.948;12.514;2022-10-16T00:38:27;21.35;;;7.43;;
31126;SDS011;17775;57.948;12.514;2022-10-16T00:40:54;21.27;;;7.68;;
31126;SDS011;17775;57.948;12.514;2022-10-16T00:43:34;21.30;;;7.30;;
31126;SDS011;17775;57.948;12.514;2022-10-16T00:46:01;23.30;;;8.00;;
31126;SDS011;17775;57.948;12.514;2022-10-16T00:48:28;19.55;;;6.72;;
31126;SDS011;17775;57.948;12.514;2022-10-16T00:50:55;22.23;;;7.47;;
31126;SDS011;17775;57.948;12.514;2022-10-16T00:53:22;17.05;;;6.90;;
31126;SDS011;17775;57.948;12.514;2022-10-16T00:55:51;14.50;;;5.97;;
31126;SDS011;17775;57.948;12.514;2022-10-16T00:58:17;20.80;;;6.32;;
31126;SDS011;17775;57.948;12.514;2022-10-16T01:00:44;18.00;;;5.75;;
31126;SDS011;17775;57.948;12.514;2022-10-16T01:03:24;20.73;;;6.40;;
31126;SDS011;17775;57.948;12.514;2022-10-16T01:06:35;16.17;;;5.72;;
31126;SDS011;17775;57.948;12.514;2022-10-16T01:11:28;13.23;;;5.65;;
31126;SDS011;17775;57.948;12.514;2022-10-16T01:13:58;14.35;;;5.13;;
31126;SDS011;17775;57.948;12.514;2022-10-16T01:16:34;13.30;;;5.10;;
31126;SDS011;17775;57.948;12.514;2022-10-16T01:19:05;14.60;;;5.38;;
31126;SDS011;17775;57.948;12.514;2022-10-16T01:21:42;14.20;;;4.38;;
31126;SDS011;17775;57.948;12.514;2022-10-16T01:26:38;20.02;;;4.20;;
31126;SDS011;17775;57.948;12.514;2022-10-16T01:29:09;10.98;;;3.85;;
31126;SDS011;17775;57.948;12.514;2022-10-16T01:31:44;14.93;;;3.85;;
31126;SDS011;17775;57.948;12.514;2022-10-16T01:34:14;13.32;;;3.67;;
31126;SDS011;17775;57.948;12.514;2022-10-16T01:36:43;16.67;;;4.20;;
31126;SDS011;17775;57.948;12.514;2022-10-16T01:39:11;16.63;;;3.70;;
31126;SDS011;17775;57.948;12.514;2022-10-16T01:41:45;16.73;;;3.53;;
31126;SDS011;17775;57.948;12.514;2022-10-16T01:44:17;11.38;;;3.38;;
31126;SDS011;17775;57.948;12.514;2022-10-16T01:46:46;13.23;;;3.83;;
31126;SDS011;17775;57.948;12.514;2022-10-16T01:49:13;12.38;;;3.28;;
31126;SDS011;17775;57.948;12.514;2022-10-16T01:51:40;18.98;;;3.92;;
31126;SDS011;17775;57.948;12.514;2022-10-16T01:54:10;16.02;;;3.75;;
31126;SDS011;17775;57.948;12.514;2022-10-16T01:56:37;9.00;;;3.28;;
31126;SDS011;17775;57.948;12.514;2022-10-16T01:59:06;9.02;;;3.45;;
31126;SDS011;17775;57.948;12.514;2022-10-16T02:01:33;10.07;;;3.78;;
31126;SDS011;17775;57.948;12.514;2022-10-16T02:04:03;10.95;;;2.90;;
31126;SDS011;17775;57.948;12.514;2022-10-16T02:06:30;11.13;;;3.13;;
31126;SDS011;17775;57.948;12.514;2022-10-16T02:08:56;14.73;;;3.30;;
31126;SDS011;17775;57.948;12.514;2022-10-16T02:11:23;11.27;;;3.50;;
31126;SDS011;17775;57.948;12.514;2022-10-16T02:13:51;10.88;;;3.20;;
31126;SDS011;17775;57.948;12.514;2022-10-16T02:16:18;16.27;;;4.10;;
31126;SDS011;17775;57.948;12.514;2022-10-16T02:18:45;11.05;;;3.35;;
31126;SDS011;17775;57.948;12.514;2022-10-16T02:21:28;10.60;;;3.05;;
31126;SDS011;17775;57.948;12.514;2022-10-16T02:24:58;9.40;;;3.03;;
31126;SDS011;17775;57.948;12.514;2022-10-16T02:27:01;12.10;;;2.70;;
31126;SDS011;17775;57.948;12.514;2022-10-16T02:29:29;19.73;;;3.00;;
31126;SDS011;17775;57.948;12.514;2022-10-16T02:32:00;11.25;;;3.00;;
31126;SDS011;17775;57.948;12.514;2022-10-16T02:34:28;15.10;;;3.53;;
31126;SDS011;17775;57.948;12.514;2022-10-16T02:36:56;10.40;;;2.65;;
31126;SDS011;17775;57.948;12.514;2022-10-16T02:39:23;12.40;;;2.88;;
31126;SDS011;17775;57.948;12.514;2022-10-16T02:41:52;10.45;;;2.75;;
31126;SDS011;17775;57.948;12.514;2022-10-16T02:44:19;11.73;;;2.85;;
31126;SDS011;17775;57.948;12.514;2022-10-16T02:46:45;11.13;;;2.75;;
31126;SDS011;17775;57.948;12.514;2022-10-16T02:49:12;14.40;;;3.60;;
31126;SDS011;17775;57.948;12.514;2022-10-16T02:51:38;15.45;;;3.75;;
31126;SDS011;17775;57.948;12.514;2022-10-16T02:54:04;11.82;;;3.03;;
31126;SDS011;17775;57.948;12.514;2022-10-16T02:56:31;12.10;;;2.65;;
31126;SDS011;17775;57.948;12.514;2022-10-16T02:58:57;8.75;;;3.00;;
31126;SDS011;17775;57.948;12.514;2022-10-16T03:01:24;18.52;;;3.13;;
31126;SDS011;17775;57.948;12.514;2022-10-16T03:03:50;13.77;;;2.55;;
31126;SDS011;17775;57.948;12.514;2022-10-16T03:06:17;15.70;;;2.70;;
31126;SDS011;17775;57.948;12.514;2022-10-16T03:08:43;12.85;;;2.33;;
31126;SDS011;17775;57.948;12.514;2022-10-16T03:11:09;11.82;;;2.70;;
31126;SDS011;17775;57.948;12.514;2022-10-16T03:13:36;14.15;;;3.15;;
31126;SDS011;17775;57.948;12.514;2022-10-16T03:16:02;14.50;;;3.42;;
31126;SDS011;17775;57.948;12.514;2022-10-16T03:18:28;8.52;;;2.72;;
31126;SDS011;17775;57.948;12.514;2022-10-16T03:20:55;16.17;;;2.63;;
31126;SDS011;17775;57.948;12.514;2022-10-16T03:23:21;15.45;;;3.58;;
31126;SDS011;17775;57.948;12.514;2022-10-16T03:25:48;11.75;;;2.38;;
31126;SDS011;17775;57.948;12.514;2022-10-16T03:28:14;9.65;;;2.53;;
31126;SDS011;17775;57.948;12.514;2022-10-16T03:30:41;13.70;;;4.35;;
31126;SDS011;17775;57.948;12.514;2022-10-16T03:33:08;13.80;;;2.83;;
31126;SDS011;17775;57.948;12.514;2022-10-16T03:35:35;7.97;;;2.40;;
31126;SDS011;17775;57.948;12.514;2022-10-16T03:38:01;9.40;;;2.78;;
31126;SDS011;17775;57.948;12.514;2022-10-16T03:40:28;14.88;;;3.10;;
31126;SDS011;17775;57.948;12.514;2022-10-16T03:42:54;13.10;;;2.70;;
31126;SDS011;17775;57.948;12.514;2022-10-16T03:45:23;12.23;;;2.78;;
31126;SDS011;17775;57.948;12.514;2022-10-16T03:47:49;8.55;;;3.63;;
31126;SDS011;17775;57.948;12.514;2022-10-16T03:50:16;16.77;;;3.40;;
31126;SDS011;17775;57.948;12.514;2022-10-16T03:52:42;14.25;;;3.40;;
31126;SDS011;17775;57.948;12.514;2022-10-16T03:55:09;14.18;;;3.05;;
31126;SDS011;17775;57.948;12.514;2022-10-16T03:57:35;11.10;;;2.92;;
31126;SDS011;17775;57.948;12.514;2022-10-16T04:00:02;14.93;;;2.90;;
31126;SDS011;17775;57.948;12.514;2022-10-16T04:02:36;13.50;;;3.08;;
31126;SDS011;17775;57.948;12.514;2022-10-16T04:05:02;10.30;;;3.20;;
31126;SDS011;17775;57.948;12.514;2022-10-16T04:07:28;11.60;;;2.85;;
31126;SDS011;17775;57.948;12.514;2022-10-16T04:09:55;11.00;;;3.17;;
31126;SDS011;17775;57.948;12.514;2022-10-16T04:12:21;9.98;;;3.03;;
31126;SDS011;17775;57.948;12.514;2022-10-16T04:14:48;11.18;;;2.55;;
31126;SDS011;17775;57.948;12.514;2022-10-16T04:17:14;16.52;;;3.47;;
31126;SDS011;17775;57.948;12.514;2022-10-16T04:19:40;10.27;;;3.55;;
31126;SDS011;17775;57.948;12.514;2022-10-16T04:22:08;14.95;;;3.60;;
31126;SDS011;17775;57.948;12.514;2022-10-16T04:24:35;20.23;;;3.78;;
31126;SDS011;17775;57.948;12.514;2022-10-16T04:27:01;14.88;;;2.97;;
31126;SDS011;17775;57.948;12.514;2022-10-16T04:29:27;11.88;;;3.00;;
31126;SDS011;17775;57.948;12.514;2022-10-16T04:31:54;14.25;;;3.38;;
31126;SDS011;17775;57.948;12.514;2022-10-16T04:34:20;18.02;;;3.38;;
31126;SDS011;17775;57.948;12.514;2022-10-16T04:36:47;10.95;;;3.22;;
31126;SDS011;17775;57.948;12.514;2022-10-16T04:39:15;16.17;;;3.53;;
31126;SDS011;17775;57.948;12.514;2022-10-16T04:41:41;14.68;;;4.03;;
31126;SDS011;17775;57.948;12.514;2022-10-16T04:44:08;14.82;;;2.80;;
31126;SDS011;17775;57.948;12.514;2022-10-16T04:46:34;10.32;;;3.75;;
31126;SDS011;17775;57.948;12.514;2022-10-16T04:49:01;7.18;;;3.30;;
31126;SDS011;17775;57.948;12.514;2022-10-16T04:51:27;15.52;;;3.50;;
31126;SDS011;17775;57.948;12.514;2022-10-16T04:53:54;16.95;;;3.75;;
31126;SDS011;17775;57.948;12.514;2022-10-16T04:56:21;13.27;;;3.28;;
31126;SDS011;17775;57.948;12.514;2022-10-16T04:58:47;9.95;;;3.35;;
31126;SDS011;17775;57.948;12.514;2022-10-16T05:01:14;13.20;;;2.63;;
31126;SDS011;17775;57.948;12.514;2022-10-16T05:03:44;10.13;;;3.20;;
31126;SDS011;17775;57.948;12.514;2022-10-16T05:06:11;10.23;;;3.55;;
31126;SDS011;17775;57.948;12.514;2022-10-16T05:08:37;7.80;;;2.80;;
31126;SDS011;17775;57.948;12.514;2022-10-16T05:11:03;9.88;;;3.05;;
31126;SDS011;17775;57.948;12.514;2022-10-16T05:13:30;11.40;;;3.28;;
31126;SDS011;17775;57.948;12.514;2022-10-16T05:15:56;8.88;;;3.08;;
31126;SDS011;17775;57.948;12.514;2022-10-16T05:18:23;9.38;;;2.78;;
31126;SDS011;17775;57.948;12.514;2022-10-16T05:20:49;11.35;;;3.55;;
31126;SDS011;17775;57.948;12.514;2022-10-16T05:23:18;7.75;;;3.13;;
31126;SDS011;17775;57.948;12.514;2022-10-16T05:25:51;14.13;;;3.65;;
31126;SDS011;17775;57.948;12.514;2022-10-16T05:28:17;14.40;;;3.15;;
31126;SDS011;17775;57.948;12.514;2022-10-16T05:30:44;12.43;;;3.00;;
31126;SDS011;17775;57.948;12.514;2022-10-16T05:33:10;9.80;;;2.65;;
31126;SDS011;17775;57.948;12.514;2022-10-16T05:35:36;9.63;;;2.95;;
31126;SDS011;17775;57.948;12.514;2022-10-16T05:38:03;11.70;;;3.13;;
31126;SDS011;17775;57.948;12.514;2022-10-16T05:40:29;8.40;;;2.85;;
31126;SDS011;17775;57.948;12.514;2022-10-16T05:42:55;12.52;;;3.03;;
31126;SDS011;17775;57.948;12.514;2022-10-16T05:45:22;8.40;;;2.63;;
31126;SDS011;17775;57.948;12.514;2022-10-16T05:47:48;9.35;;;3.00;;
31126;SDS011;17775;57.948;12.514;2022-10-16T05:50:15;13.77;;;3.00;;
31126;SDS011;17775;57.948;12.514;2022-10-16T05:52:41;11.88;;;3.30;;
31126;SDS011;17775;57.948;12.514;2022-10-16T05:55:07;9.80;;;3.05;;
31126;SDS011;17775;57.948;12.514;2022-10-16T05:57:34;10.45;;;3.15;;
31126;SDS011;17775;57.948;12.514;2022-10-16T06:00:00;10.40;;;4.00;;
31126;SDS011;17775;57.948;12.514;2022-10-16T06:02:27;15.10;;;4.03;;
31126;SDS011;17775;57.948;12.514;2022-10-16T06:04:53;11.32;;;3.67;;
31126;SDS011;17775;57.948;12.514;2022-10-16T06:07:20;13.65;;;3.88;;
31126;SDS011;17775;57.948;12.514;2022-10-16T06:09:53;13.38;;;3.83;;
31126;SDS011;17775;57.948;12.514;2022-10-16T06:12:19;14.63;;;3.60;;
31126;SDS011;17775;57.948;12.514;2022-10-16T06:14:46;11.25;;;3.85;;
31126;SDS011;17775;57.948;12.514;2022-10-16T06:17:15;11.48;;;3.40;;
31126;SDS011;17775;57.948;12.514;2022-10-16T06:19:41;22.02;;;4.18;;
31126;SDS011;17775;57.948;12.514;2022-10-16T06:22:08;16.08;;;3.95;;
31126;SDS011;17775;57.948;12.514;2022-10-16T06:24:34;13.85;;;3.88;;
31126;SDS011;17775;57.948;12.514;2022-10-16T06:27:00;17.70;;;4.45;;
31126;SDS011;17775;57.948;12.514;2022-10-16T06:29:27;16.85;;;4.95;;
31126;SDS011;17775;57.948;12.514;2022-10-16T06:31:53;15.32;;;4.32;;
31126;SDS011;17775;57.948;12.514;2022-10-16T06:34:20;25.17;;;5.05;;
31126;SDS011;17775;57.948;12.514;2022-10-16T06:36:49;14.25;;;4.78;;
31126;SDS011;17775;57.948;12.514;2022-10-16T06:39:16;15.82;;;4.15;;
31126;SDS011;17775;57.948;12.514;2022-10-16T06:41:43;14.27;;;4.13;;
31126;SDS011;17775;57.948;12.514;2022-10-16T06:44:09;15.23;;;4.32;;
31126;SDS011;17775;57.948;12.514;2022-10-16T06:46:36;11.00;;;3.92;;
31126;SDS011;17775;57.948;12.514;2022-10-16T06:49:02;16.52;;;5.15;;
31126;SDS011;17775;57.948;12.514;2022-10-16T06:51:29;14.65;;;4.30;;
31126;SDS011;17775;57.948;12.514;2022-10-16T06:54:00;16.77;;;4.25;;
31126;SDS011;17775;57.948;12.514;2022-10-16T06:56:29;13.98;;;5.20;;
31126;SDS011;17775;57.948;12.514;2022-10-16T06:58:57;16.08;;;4.53;;
31126;SDS011;17775;57.948;12.514;2022-10-16T07:01:25;18.95;;;5.72;;
31126;SDS011;17775;57.948;12.514;2022-10-16T07:03:52;18.50;;;4.88;;
31126;SDS011;17775;57.948;12.514;2022-10-16T07:06:19;16.17;;;4.43;;
31126;SDS011;17775;57.948;12.514;2022-10-16T07:08:46;13.82;;;4.57;;
31126;SDS011;17775;57.948;12.514;2022-10-16T07:11:13;14.75;;;4.13;;
31126;SDS011;17775;57.948;12.514;2022-10-16T07:13:41;19.35;;;4.68;;
31126;SDS011;17775;57.948;12.514;2022-10-16T07:16:08;10.60;;;3.88;;
31126;SDS011;17775;57.948;12.514;2022-10-16T07:18:35;18.25;;;5.85;;
31126;SDS011;17775;57.948;12.514;2022-10-16T07:21:03;16.35;;;4.40;;
31126;SDS011;17775;57.948;12.514;2022-10-16T07:23:30;12.48;;;4.57;;
31126;SDS011;17775;57.948;12.514;2022-10-16T07:25:56;15.35;;;4.20;;
31126;SDS011;17775;57.948;12.514;2022-10-16T07:28:22;20.15;;;5.10;;
31126;SDS011;17775;57.948;12.514;2022-10-16T07:30:49;16.58;;;4.35;;
31126;SDS011;17775;57.948;12.514;2022-10-16T07:33:15;22.50;;;4.40;;
31126;SDS011;17775;57.948;12.514;2022-10-16T07:35:52;17.52;;;4.13;;
31126;SDS011;17775;57.948;12.514;2022-10-16T07:38:20;10.68;;;3.88;;
31126;SDS011;17775;57.948;12.514;2022-10-16T07:40:47;10.60;;;4.28;;
31126;SDS011;17775;57.948;12.514;2022-10-16T07:43:14;16.88;;;3.92;;
31126;SDS011;17775;57.948;12.514;2022-10-16T07:45:47;9.52;;;3.75;;
31126;SDS011;17775;57.948;12.514;2022-10-16T07:48:22;14.27;;;3.30;;
31126;SDS011;17775;57.948;12.514;2022-10-16T07:50:49;9.50;;;3.10;;
31126;SDS011;17775;57.948;12.514;2022-10-16T07:53:15;10.23;;;2.92;;
31126;SDS011;17775;57.948;12.514;2022-10-16T07:55:42;10.50;;;3.25;;
31126;SDS011;17775;57.948;12.514;2022-10-16T07:58:08;13.13;;;4.85;;
31126;SDS011;17775;57.948;12.514;2022-10-16T08:00:35;11.95;;;3.28;;
31126;SDS011;17775;57.948;12.514;2022-10-16T08:03:02;12.88;;;2.45;;
31126;SDS011;17775;57.948;12.514;2022-10-16T08:05:29;9.38;;;2.55;;
31126;SDS011;17775;57.948;12.514;2022-10-16T08:07:58;15.63;;;2.88;;
31126;SDS011;17775;57.948;12.514;2022-10-16T08:10:25;6.75;;;2.40;;
31126;SDS011;17775;57.948;12.514;2022-10-16T08:12:52;7.53;;;2.33;;
31126;SDS011;17775;57.948;12.514;2022-10-16T08:15:19;9.82;;;2.30;;
31126;SDS011;17775;57.948;12.514;2022-10-16T08:17:53;12.05;;;2.33;;
31126;SDS011;17775;57.948;12.514;2022-10-16T08:20:20;7.63;;;2.08;;
31126;SDS011;17775;57.948;12.514;2022-10-16T08:22:46;9.20;;;2.08;;
31126;SDS011;17775;57.948;12.514;2022-10-16T08:25:13;11.23;;;1.88;;
31126;SDS011;17775;57.948;12.514;2022-10-16T08:27:39;8.45;;;2.15;;
31126;SDS011;17775;57.948;12.514;2022-10-16T08:30:06;13.63;;;1.90;;
31126;SDS011;17775;57.948;12.514;2022-10-16T08:32:32;8.32;;;1.80;;
31126;SDS011;17775;57.948;12.514;2022-10-16T08:34:59;8.63;;;1.70;;
31126;SDS011;17775;57.948;12.514;2022-10-16T08:37:29;6.45;;;1.67;;
31126;SDS011;17775;57.948;12.514;2022-10-16T08:39:55;9.83;;;1.77;;
31126;SDS011;17775;57.948;12.514;2022-10-16T08:42:31;6.55;;;1.45;;
31126;SDS011;17775;57.948;12.514;2022-10-16T08:50:00;15.27;;;2.63;;
31126;SDS011;17775;57.948;12.514;2022-10-16T08:52:29;8.88;;;2.15;;
31126;SDS011;17775;57.948;12.514;2022-10-16T08:54:56;9.43;;;2.17;;
31126;SDS011;17775;57.948;12.514;2022-10-16T08:57:24;7.45;;;1.50;;
31126;SDS011;17775;57.948;12.514;2022-10-16T08:59:51;9.00;;;1.92;;
31126;SDS011;17775;57.948;12.514;2022-10-16T09:02:25;12.50;;;2.05;;
31126;SDS011;17775;57.948;12.514;2022-10-16T09:07:26;6.57;;;1.77;;
31126;SDS011;17775;57.948;12.514;2022-10-16T09:20:13;9.77;;;2.20;;
31126;SDS011;17775;57.948;12.514;2022-10-16T09:22:43;14.32;;;3.35;;
31126;SDS011;17775;57.948;12.514;2022-10-16T09:25:10;10.93;;;1.55;;
31126;SDS011;17775;57.948;12.514;2022-10-16T09:27:37;10.57;;;1.88;;
31126;SDS011;17775;57.948;12.514;2022-10-16T09:30:14;11.32;;;1.88;;
31126;SDS011;17775;57.948;12.514;2022-10-16T09:32:41;6.70;;;1.30;;
31126;SDS011;17775;57.948;12.514;2022-10-16T09:35:13;6.82;;;2.00;;
31126;SDS011;17775;57.948;12.514;2022-10-16T09:37:41;11.27;;;1.85;;
31126;SDS011;17775;57.948;12.514;2022-10-16T09:40:12;8.82;;;1.67;;
31126;SDS011;17775;57.948;12.514;2022-10-16T09:42:39;14.95;;;1.65;;
31126;SDS011;17775;57.948;12.514;2022-10-16T09:45:05;8.00;;;1.92;;
31126;SDS011;17775;57.948;12.514;2022-10-16T09:47:35;5.03;;;1.30;;
31126;SDS011;17775;57.948;12.514;2022-10-16T09:50:19;8.13;;;2.08;;
31126;SDS011;17775;57.948;12.514;2022-10-16T09:52:46;8.43;;;1.60;;
31126;SDS011;17775;57.948;12.514;2022-10-16T09:55:13;13.10;;;2.13;;
31126;SDS011;17775;57.948;12.514;2022-10-16T09:57:53;13.40;;;2.65;;
31126;SDS011;17775;57.948;12.514;2022-10-16T10:00:20;12.73;;;2.22;;
31126;SDS011;17775;57.948;12.514;2022-10-16T10:02:46;21.90;;;2.40;;
31126;SDS011;17775;57.948;12.514;2022-10-16T10:05:24;15.15;;;2.25;;
31126;SDS011;17775;57.948;12.514;2022-10-16T10:07:54;9.13;;;1.98;;
31126;SDS011;17775;57.948;12.514;2022-10-16T10:10:22;13.90;;;2.67;;
31126;SDS011;17775;57.948;12.514;2022-10-16T10:12:49;11.15;;;2.47;;
31126;SDS011;17775;57.948;12.514;2022-10-16T10:15:16;12.40;;;2.03;;
31126;SDS011;17775;57.948;12.514;2022-10-16T10:17:48;13.50;;;2.00;;
31126;SDS011;17775;57.948;12.514;2022-10-16T10:20:21;12.75;;;2.17;;
31126;SDS011;17775;57.948;12.514;2022-10-16T10:22:48;10.30;;;2.20;;
31126;SDS011;17775;57.948;12.514;2022-10-16T10:28:04;14.95;;;2.95;;
31126;SDS011;17775;57.948;12.514;2022-10-16T10:40:52;15.45;;;2.40;;
31126;SDS011;17775;57.948;12.514;2022-10-16T10:45:59;18.85;;;2.08;;
31126;SDS011;17775;57.948;12.514;2022-10-16T10:51:01;16.42;;;2.72;;
31126;SDS011;17775;57.948;12.514;2022-10-16T10:58:51;17.70;;;2.13;;
31126;SDS011;17775;57.948;12.514;2022-10-16T11:07:42;16.70;;;1.92;;
31126;SDS011;17775;57.948;12.514;2022-10-16T11:10:12;16.90;;;2.58;;
31126;SDS011;17775;57.948;12.514;2022-10-16T11:12:42;17.40;;;3.03;;
31126;SDS011;17775;57.948;12.514;2022-10-16T11:15:20;23.15;;;4.00;;
31126;SDS011;17775;57.948;12.514;2022-10-16T11:17:50;18.85;;;2.80;;
31126;SDS011;17775;57.948;12.514;2022-10-16T11:20:19;12.05;;;3.00;;
31126;SDS011;17775;57.948;12.514;2022-10-16T11:22:59;20.77;;;2.60;;
31126;SDS011;17775;57.948;12.514;2022-10-16T11:25:30;21.60;;;2.50;;
31126;SDS011;17775;57.948;12.514;2022-10-16T11:28:06;9.82;;;2.00;;
31126;SDS011;17775;57.948;12.514;2022-10-16T11:30:46;7.55;;;2.05;;
31126;SDS011;17775;57.948;12.514;2022-10-16T11:33:25;6.07;;;1.33;;
31126;SDS011;17775;57.948;12.514;2022-10-16T11:35:55;13.60;;;2.65;;
31126;SDS011;17775;57.948;12.514;2022-10-16T11:41:20;6.60;;;1.40;;
31126;SDS011;17775;57.948;12.514;2022-10-16T11:43:51;3.97;;;1.20;;
31126;SDS011;17775;57.948;12.514;2022-10-16T11:46:20;12.35;;;1.98;;
31126;SDS011;17775;57.948;12.514;2022-10-16T11:51:16;17.60;;;2.50;;
31126;SDS011;17775;57.948;12.514;2022-10-16T11:56:20;16.73;;;2.72;;
31126;SDS011;17775;57.948;12.514;2022-10-16T12:06:46;11.52;;;2.85;;
31126;SDS011;17775;57.948;12.514;2022-10-16T12:09:20;11.25;;;2.83;;
31126;SDS011;17775;57.948;12.514;2022-10-16T12:11:47;12.02;;;2.05;;
31126;SDS011;17775;57.948;12.514;2022-10-16T12:19:22;15.20;;;2.78;;
31126;SDS011;17775;57.948;12.514;2022-10-16T12:21:49;17.80;;;4.68;;
31126;SDS011;17775;57.948;12.514;2022-10-16T12:26:58;14.75;;;2.08;;
31126;SDS011;17775;57.948;12.514;2022-10-16T12:29:41;9.65;;;1.30;;
31126;SDS011;17775;57.948;12.514;2022-10-16T12:35:29;7.20;;;1.00;;
31126;SDS011;17775;57.948;12.514;2022-10-16T12:38:06;7.78;;;0.82;;
31126;SDS011;17775;57.948;12.514;2022-10-16T12:40:34;3.55;;;0.80;;
31126;SDS011;17775;57.948;12.514;2022-10-16T12:46:19;5.53;;;1.00;;
31126;SDS011;17775;57.948;12.514;2022-10-16T12:48:47;6.53;;;1.20;;
31126;SDS011;17775;57.948;12.514;2022-10-16T12:59:38;7.57;;;1.17;;
31126;SDS011;17775;57.948;12.514;2022-10-16T13:15:19;11.85;;;1.83;;
31126;SDS011;17775;57.948;12.514;2022-10-16T13:17:56;10.30;;;1.33;;
31126;SDS011;17775;57.948;12.514;2022-10-16T13:28:08;10.80;;;1.85;;
31126;SDS011;17775;57.948;12.514;2022-10-16T13:35:49;12.90;;;1.92;;
31126;SDS011;17775;57.948;12.514;2022-10-16T13:38:17;13.88;;;1.75;;
31126;SDS011;17775;57.948;12.514;2022-10-16T13:43:25;11.27;;;1.50;;
31126;SDS011;17775;57.948;12.514;2022-10-16T13:45:54;5.95;;;1.35;;
31126;SDS011;17775;57.948;12.514;2022-10-16T13:48:23;18.42;;;1.60;;
31126;SDS011;17775;57.948;12.514;2022-10-16T13:53:25;9.70;;;1.50;;
31126;SDS011;17775;57.948;12.514;2022-10-16T13:55:52;8.10;;;1.40;;
31126;SDS011;17775;57.948;12.514;2022-10-16T13:58:18;11.30;;;1.75;;
31126;SDS011;17775;57.948;12.514;2022-10-16T14:00:52;14.85;;;2.72;;
31126;SDS011;17775;57.948;12.514;2022-10-16T14:03:20;17.00;;;1.55;;
31126;SDS011;17775;57.948;12.514;2022-10-16T14:05:53;13.85;;;2.30;;
31126;SDS011;17775;57.948;12.514;2022-10-16T14:08:21;10.13;;;1.52;;
31126;SDS011;17775;57.948;12.514;2022-10-16T14:13:26;10.98;;;2.25;;
31126;SDS011;17775;57.948;12.514;2022-10-16T14:15:54;12.73;;;1.52;;
31126;SDS011;17775;57.948;12.514;2022-10-16T14:18:24;12.27;;;1.60;;
31126;SDS011;17775;57.948;12.514;2022-10-16T14:20:54;15.25;;;1.85;;
31126;SDS011;17775;57.948;12.514;2022-10-16T14:23:29;10.63;;;1.58;;
31126;SDS011;17775;57.948;12.514;2022-10-16T14:26:06;13.75;;;1.98;;
31126;SDS011;17775;57.948;12.514;2022-10-16T14:28:40;10.00;;;1.65;;
31126;SDS011;17775;57.948;12.514;2022-10-16T14:33:45;13.43;;;1.88;;
31126;SDS011;17775;57.948;12.514;2022-10-16T14:36:13;9.07;;;2.20;;
31126;SDS011;17775;57.948;12.514;2022-10-16T14:38:41;11.23;;;1.88;;
31126;SDS011;17775;57.948;12.514;2022-10-16T14:41:11;13.05;;;1.77;;
31126;SDS011;17775;57.948;12.514;2022-10-16T14:43:39;15.15;;;2.50;;
31126;SDS011;17775;57.948;12.514;2022-10-16T14:46:12;13.38;;;1.90;;
31126;SDS011;17775;57.948;12.514;2022-10-16T14:48:40;16.52;;;1.77;;
31126;SDS011;17775;57.948;12.514;2022-10-16T14:51:08;11.55;;;2.05;;
31126;SDS011;17775;57.948;12.514;2022-10-16T14:53:39;14.38;;;2.13;;
31126;SDS011;17775;57.948;12.514;2022-10-16T14:56:06;16.60;;;3.13;;
31126;SDS011;17775;57.948;12.514;2022-10-16T14:58:39;10.10;;;1.73;;
31126;SDS011;17775;57.948;12.514;2022-10-16T15:01:07;13.40;;;2.03;;
31126;SDS011;17775;57.948;12.514;2022-10-16T15:03:34;18.02;;;2.08;;
31126;SDS011;17775;57.948;12.514;2022-10-16T15:06:01;13.70;;;1.80;;
31126;SDS011;17775;57.948;12.514;2022-10-16T15:08:27;13.05;;;1.73;;
31126;SDS011;17775;57.948;12.514;2022-10-16T15:10:54;12.43;;;1.80;;
31126;SDS011;17775;57.948;12.514;2022-10-16T15:13:20;9.00;;;1.30;;
31126;SDS011;17775;57.948;12.514;2022-10-16T15:15:47;17.15;;;1.85;;
31126;SDS011;17775;57.948;12.514;2022-10-16T15:18:15;11.30;;;1.60;;
31126;SDS011;17775;57.948;12.514;2022-10-16T15:20:47;21.50;;;2.03;;
31126;SDS011;17775;57.948;12.514;2022-10-16T15:23:15;19.60;;;1.65;;
31126;SDS011;17775;57.948;12.514;2022-10-16T15:25:49;12.48;;;1.95;;
31126;SDS011;17775;57.948;12.514;2022-10-16T15:28:16;13.00;;;1.73;;
31126;SDS011;17775;57.948;12.514;2022-10-16T15:30:43;21.00;;;2.95;;
31126;SDS011;17775;57.948;12.514;2022-10-16T15:33:14;21.27;;;2.42;;
31126;SDS011;17775;57.948;12.514;2022-10-16T15:35:41;13.18;;;1.98;;
31126;SDS011;17775;57.948;12.514;2022-10-16T15:38:10;15.02;;;2.50;;
31126;SDS011;17775;57.948;12.514;2022-10-16T15:40:38;16.25;;;2.38;;
31126;SDS011;17775;57.948;12.514;2022-10-16T15:43:04;18.00;;;1.88;;
31126;SDS011;17775;57.948;12.514;2022-10-16T15:45:31;13.18;;;1.77;;
31126;SDS011;17775;57.948;12.514;2022-10-16T15:47:57;14.82;;;2.78;;
31126;SDS011;17775;57.948;12.514;2022-10-16T15:50:24;17.95;;;2.20;;
31126;SDS011;17775;57.948;12.514;2022-10-16T15:52:50;17.75;;;2.85;;
31126;SDS011;17775;57.948;12.514;2022-10-16T15:55:17;11.93;;;2.85;;
31126;SDS011;17775;57.948;12.514;2022-10-16T15:57:45;19.77;;;2.33;;
31126;SDS011;17775;57.948;12.514;2022-10-16T16:00:13;13.02;;;2.75;;
31126;SDS011;17775;57.948;12.514;2022-10-16T16:02:41;13.65;;;2.42;;
31126;SDS011;17775;57.948;12.514;2022-10-16T16:05:08;17.27;;;2.65;;
31126;SDS011;17775;57.948;12.514;2022-10-16T16:07:35;13.23;;;2.60;;
31126;SDS011;17775;57.948;12.514;2022-10-16T16:10:03;16.85;;;2.63;;
31126;SDS011;17775;57.948;12.514;2022-10-16T16:12:30;16.15;;;2.30;;
31126;SDS011;17775;57.948;12.514;2022-10-16T16:14:57;13.90;;;2.38;;
31126;SDS011;17775;57.948;12.514;2022-10-16T16:17:29;23.45;;;4.20;;
31126;SDS011;17775;57.948;12.514;2022-10-16T16:19:57;16.38;;;2.42;;
31126;SDS011;17775;57.948;12.514;2022-10-16T16:22:24;14.55;;;2.30;;
31126;SDS011;17775;57.948;12.514;2022-10-16T16:24:50;12.75;;;1.90;;
31126;SDS011;17775;57.948;12.514;2022-10-16T16:27:17;18.48;;;2.15;;
31126;SDS011;17775;57.948;12.514;2022-10-16T16:29:46;13.55;;;1.75;;
31126;SDS011;17775;57.948;12.514;2022-10-16T16:32:12;9.10;;;1.88;;
31126;SDS011;17775;57.948;12.514;2022-10-16T16:34:39;14.65;;;2.03;;
31126;SDS011;17775;57.948;12.514;2022-10-16T16:37:05;13.80;;;2.25;;
31126;SDS011;17775;57.948;12.514;2022-10-16T16:39:33;16.60;;;2.72;;